Time;durP1;ratioP1;P1;durP2;ratioP2;P2;SDS_P1;SDS_P2;PMS_P1;PMS_P2;Temp;Humidity;BMP_temperature;BMP_pressure;BME280_temperature;BME280_humidity;BME280_pressure;Samples;Min_cycle;Max_cycle;Signal;HPM_P1;HPM_P2
2021/05/28 12:24:20;;;;;;;104.13;99.53;;;;;;;;;;5070709;28;20604;-72
2021/05/28 12:26:46;;;;;;;142.32;135.68;;;;;;;;;;5070664;28;20176;-73
2021/05/28 12:29:12;;;;;;;137.95;131.75;;;;;;;;;;5070600;28;20196;-71
2021/05/28 12:31:41;;;;;;;210.18;200.73;;;;;;;;;;5070661;28;20516;-71
2021/05/28 12:34:08;;;;;;;208.13;198.57;;;;;;;;;;5070543;28;20165;-71
2021/05/28 12:36:41;;;;;;;207.55;198.30;;;;;;;;;;5070472;28;20231;-71
2021/05/28 12:39:12;;;;;;;284.40;271.50;;;;;;;;;;5070415;28;20591;-71
2021/05/28 12:41:38;;;;;;;284.10;271.27;;;;;;;;;;5070266;28;20173;-71
2021/05/28 12:44:05;;;;;;;252.98;241.45;;;;;;;;;;5070143;28;20279;-70
2021/05/28 12:46:38;;;;;;;266.52;254.65;;;;;;;;;;5070155;28;20160;-70
2021/05/28 12:49:05;;;;;;;311.90;297.63;;;;;;;;;;5070171;28;20213;-71
2021/05/28 12:51:35;;;;;;;306.92;292.90;;;;;;;;;;5070080;28;20192;-71
2021/05/28 12:54:13;;;;;;;309.02;295.00;;;;;;;;;;5070100;28;20643;-71
2021/05/28 12:56:39;;;;;;;297.23;283.75;;;;;;;;;;5070104;28;20169;-71
2021/05/28 12:59:17;;;;;;;338.88;323.20;;;;;;;;;;5069999;28;20630;-71
2021/05/28 13:01:43;;;;;;;334.90;319.17;;;;;;;;;;5069995;28;20164;-70
2021/05/28 13:04:09;;;;;;;327.25;312.10;;;;;;;;;;5069846;28;20605;-70
2021/05/28 13:06:42;;;;;;;342.33;326.45;;;;;;;;;;5069866;28;20168;-70
2021/05/28 13:09:08;;;;;;;306.70;291.55;;;;;;;;;;5069830;28;20628;-70
2021/05/28 13:11:47;;;;;;;325.10;310.08;;;;;;;;;;5068476;28;20646;-70
2021/05/28 13:14:18;;;;;;;298.92;285.35;;;;;;;;;;5069690;28;20209;-70
2021/05/28 13:16:44;;;;;;;272.42;260.08;;;;;;;;;;5068661;28;20524;-70
2021/05/28 13:19:10;;;;;;;240.43;229.65;;;;;;;;;;5069585;28;20176;-70
2021/05/28 13:21:36;;;;;;;269.02;256.17;;;;;;;;;;5069462;28;20622;-69
2021/05/28 13:24:02;;;;;;;249.60;238.00;;;;;;;;;;5069265;28;20224;-70
2021/05/28 13:26:29;;;;;;;250.90;239.25;;;;;;;;;;5068144;28;20164;-70
2021/05/28 13:28:56;;;;;;;282.13;269.33;;;;;;;;;;5069361;28;20164;-70
2021/05/28 13:31:22;;;;;;;239.30;228.55;;;;;;;;;;5069239;28;20171;-70
2021/05/28 13:33:53;;;;;;;271.48;259.10;;;;;;;;;;5066389;28;20169;-69
2021/05/28 13:36:21;;;;;;;257.63;245.93;;;;;;;;;;5056056;28;20173;-69
2021/05/28 13:38:48;;;;;;;289.42;276.17;;;;;;;;;;5054751;28;20508;-70
2021/05/28 13:41:18;;;;;;;344.70;328.45;;;;;;;;;;5055895;28;20248;-70
2021/05/28 13:43:44;;;;;;;350.65;334.25;;;;;;;;;;5055822;28;20188;-70
2021/05/28 13:46:11;;;;;;;328.17;312.98;;;;;;;;;;5055812;28;20160;-70
2021/05/28 13:48:38;;;;;;;365.00;347.85;;;;;;;;;;5055888;28;20173;-70
2021/05/28 13:51:06;;;;;;;371.27;353.70;;;;;;;;;;5055733;28;20592;-70
2021/05/28 13:53:32;;;;;;;336.05;320.50;;;;;;;;;;5054430;28;20177;-68
2021/05/28 13:55:58;;;;;;;296.35;282.80;;;;;;;;;;5055623;28;20644;-65
2021/05/28 13:58:24;;;;;;;304.70;290.88;;;;;;;;;;5055629;28;20173;-66
2021/05/28 14:00:51;;;;;;;295.92;282.58;;;;;;;;;;5055456;28;20264;-66
2021/05/28 14:03:17;;;;;;;322.20;307.50;;;;;;;;;;5055400;28;20204;-66
2021/05/28 14:05:43;;;;;;;340.33;324.70;;;;;;;;;;5055387;28;20173;-71
2021/05/28 14:08:10;;;;;;;334.38;319.05;;;;;;;;;;5055315;28;20171;-71
2021/05/28 14:10:36;;;;;;;272.38;260.17;;;;;;;;;;5055345;28;20175;-71
2021/05/28 14:13:03;;;;;;;322.85;308.17;;;;;;;;;;5055309;28;20169;-71
2021/05/28 14:15:29;;;;;;;341.17;325.58;;;;;;;;;;5055255;28;20172;-71
2021/05/28 14:17:55;;;;;;;286.88;273.95;;;;;;;;;;5055167;28;20173;-71
2021/05/28 14:20:25;;;;;;;233.65;223.27;;;;;;;;;;5053835;28;20245;-71
2021/05/28 14:22:51;;;;;;;294.45;281.23;;;;;;;;;;5054778;28;20293;-71
2021/05/28 14:25:18;;;;;;;309.17;295.20;;;;;;;;;;5055204;28;20160;-71
2021/05/28 14:27:45;;;;;;;242.18;231.43;;;;;;;;;;5055072;28;20256;-71
2021/05/28 14:30:11;;;;;;;270.23;258.10;;;;;;;;;;5054975;28;20161;-70
2021/05/28 14:32:38;;;;;;;287.08;274.15;;;;;;;;;;5054670;28;20165;-71
2021/05/28 14:35:05;;;;;;;298.17;284.73;;;;;;;;;;5054744;28;20173;-71
2021/05/28 14:37:34;;;;;;;289.10;276.05;;;;;;;;;;5053718;28;20255;-71
2021/05/28 14:40:00;;;;;;;315.63;301.35;;;;;;;;;;5054857;28;20476;-71
2021/05/28 14:42:26;;;;;;;306.05;292.17;;;;;;;;;;5053488;28;20223;-71
2021/05/28 14:44:53;;;;;;;272.45;260.35;;;;;;;;;;5054787;28;20165;-71
2021/05/28 14:47:19;;;;;;;269.85;257.83;;;;;;;;;;5052546;28;20299;-71
2021/05/28 14:49:45;;;;;;;242.85;232.05;;;;;;;;;;5054753;28;20197;-71
2021/05/28 14:52:11;;;;;;;269.95;257.83;;;;;;;;;;5053245;28;20647;-70
2021/05/28 14:54:37;;;;;;;292.95;279.83;;;;;;;;;;5054512;28;20169;-70
2021/05/28 14:57:03;;;;;;;246.70;235.75;;;;;;;;;;5054424;28;20626;-71
2021/05/28 14:59:30;;;;;;;247.88;236.85;;;;;;;;;;5053163;28;20183;-71
2021/05/28 15:01:56;;;;;;;306.95;293.05;;;;;;;;;;5054334;28;20165;-70
2021/05/28 15:04:22;;;;;;;253.20;241.93;;;;;;;;;;5053205;28;20290;-71
2021/05/28 15:06:48;;;;;;;269.77;257.77;;;;;;;;;;5054270;28;20685;-71
2021/05/28 15:09:14;;;;;;;217.77;208.07;;;;;;;;;;5054231;28;20258;-70
2021/05/28 15:11:40;;;;;;;219.13;209.38;;;;;;;;;;5052830;28;20212;-70
2021/05/28 15:14:07;;;;;;;254.48;243.15;;;;;;;;;;5054191;28;20172;-71
2021/05/28 15:16:33;;;;;;;290.00;276.98;;;;;;;;;;5052803;28;20237;-71
2021/05/28 15:18:59;;;;;;;318.52;304.08;;;;;;;;;;5054071;28;20179;-71
2021/05/28 15:21:26;;;;;;;288.20;275.27;;;;;;;;;;5053982;28;20165;-71
2021/05/28 15:23:53;;;;;;;289.77;276.83;;;;;;;;;;5053747;28;20219;-70
2021/05/28 15:26:19;;;;;;;256.77;245.40;;;;;;;;;;5053924;28;20184;-71
2021/05/28 15:28:45;;;;;;;298.58;285.23;;;;;;;;;;5053882;28;20618;-71
2021/05/28 15:31:11;;;;;;;317.58;303.33;;;;;;;;;;5052729;28;20175;-71
2021/05/28 15:33:37;;;;;;;258.25;246.85;;;;;;;;;;5053795;28;20169;-71
2021/05/28 15:36:04;;;;;;;322.33;307.88;;;;;;;;;;5053804;28;20251;-71
2021/05/28 15:38:30;;;;;;;256.15;244.82;;;;;;;;;;5053830;28;20252;-71
2021/05/28 15:40:56;;;;;;;351.25;335.33;;;;;;;;;;5053716;28;20226;-71
2021/05/28 15:43:22;;;;;;;361.77;345.30;;;;;;;;;;5053654;28;20227;-71
2021/05/28 15:45:49;;;;;;;399.25;380.65;;;;;;;;;;5053679;28;20207;-71
2021/05/28 15:48:15;;;;;;;345.10;329.45;;;;;;;;;;5053586;28;20161;-71
2021/05/28 15:50:42;;;;;;;291.25;278.20;;;;;;;;;;5053471;28;20519;-66
2021/05/28 15:53:13;;;;;;;330.83;315.88;;;;;;;;;;5053589;28;20170;-66
2021/05/28 15:55:39;;;;;;;348.48;332.58;;;;;;;;;;5053443;28;20177;-66
2021/05/28 15:58:06;;;;;;;263.30;251.57;;;;;;;;;;5053178;28;20183;-67
2021/05/28 16:00:32;;;;;;;376.70;359.30;;;;;;;;;;5052087;28;20172;-66
2021/05/28 16:03:02;;;;;;;303.17;289.58;;;;;;;;;;5053198;28;20192;-67
2021/05/28 16:05:28;;;;;;;324.40;309.70;;;;;;;;;;5051997;28;20168;-66
2021/05/28 16:07:54;;;;;;;324.17;309.48;;;;;;;;;;5052011;28;20168;-66
2021/05/28 16:10:20;;;;;;;322.05;307.58;;;;;;;;;;5053225;28;20175;-66
2021/05/28 16:12:46;;;;;;;267.30;255.38;;;;;;;;;;5053033;28;20255;-66
2021/05/28 16:15:12;;;;;;;268.77;256.77;;;;;;;;;;5051823;28;20275;-66
2021/05/28 16:17:38;;;;;;;373.08;355.80;;;;;;;;;;5053060;28;20164;-66
2021/05/28 16:20:05;;;;;;;237.80;227.20;;;;;;;;;;5052945;28;20502;-66
2021/05/28 16:22:31;;;;;;;306.25;292.55;;;;;;;;;;5051556;28;20573;-66
2021/05/28 16:24:57;;;;;;;250.00;238.95;;;;;;;;;;5053000;28;20175;-66
2021/05/28 16:27:23;;;;;;;276.38;264.13;;;;;;;;;;5052878;28;20263;-66
2021/05/28 16:29:49;;;;;;;268.17;256.27;;;;;;;;;;5052977;28;20206;-66
2021/05/28 16:32:15;;;;;;;199.25;190.40;;;;;;;;;;5052828;28;20524;-67
2021/05/28 16:34:41;;;;;;;246.73;235.73;;;;;;;;;;5052858;28;20179;-66
2021/05/28 16:37:08;;;;;;;243.60;232.75;;;;;;;;;;5052749;28;20168;-66
2021/05/28 16:39:34;;;;;;;237.75;227.18;;;;;;;;;;5052854;28;20172;-66
2021/05/28 16:42:00;;;;;;;269.00;257.05;;;;;;;;;;5052701;28;20184;-66
2021/05/28 16:44:25;;;;;;;272.48;260.33;;;;;;;;;;5052784;28;20164;-66
2021/05/28 16:46:51;;;;;;;216.68;207.07;;;;;;;;;;5052752;28;20632;-66
2021/05/28 16:49:17;;;;;;;225.93;215.90;;;;;;;;;;5052693;28;20173;-67
2021/05/28 16:51:45;;;;;;;262.80;251.13;;;;;;;;;;5052758;28;20313;-67
2021/05/28 16:54:12;;;;;;;272.80;260.63;;;;;;;;;;5035305;28;20204;-66
2021/05/28 16:56:38;;;;;;;276.98;264.67;;;;;;;;;;5052657;28;20242;-67
2021/05/28 16:59:04;;;;;;;252.40;241.20;;;;;;;;;;5052633;28;20169;-67
2021/05/28 17:01:31;;;;;;;233.95;223.60;;;;;;;;;;5052654;28;20157;-70
2021/05/28 17:03:57;;;;;;;256.20;244.77;;;;;;;;;;5052548;28;20240;-70
2021/05/28 17:06:23;;;;;;;206.40;197.15;;;;;;;;;;5052030;28;20661;-69
2021/05/28 17:08:49;;;;;;;184.93;176.65;;;;;;;;;;5050428;28;20173;-69
2021/05/28 17:11:15;;;;;;;181.98;173.82;;;;;;;;;;5054096;28;20200;-69
2021/05/28 17:13:41;;;;;;;170.55;162.90;;;;;;;;;;5056146;28;20224;-69
2021/05/28 17:16:07;;;;;;;209.93;200.57;;;;;;;;;;5056236;28;20169;-69
2021/05/28 17:18:34;;;;;;;231.30;220.95;;;;;;;;;;5056099;28;20172;-69
2021/05/28 17:21:00;;;;;;;228.73;218.50;;;;;;;;;;5056225;28;20215;-70
2021/05/28 17:23:26;;;;;;;274.67;262.38;;;;;;;;;;5055919;28;20255;-69
2021/05/28 17:25:52;;;;;;;248.13;237.07;;;;;;;;;;5056088;28;20172;-69
2021/05/28 17:28:18;;;;;;;198.32;189.48;;;;;;;;;;5056017;28;20165;-69
2021/05/28 17:30:44;;;;;;;209.65;200.27;;;;;;;;;;5055931;28;20259;-69
2021/05/28 17:33:11;;;;;;;236.90;226.35;;;;;;;;;;5055808;28;20184;-69
2021/05/28 17:35:38;;;;;;;175.45;167.60;;;;;;;;;;5054342;28;20251;-69
2021/05/28 17:38:04;;;;;;;203.88;194.75;;;;;;;;;;5054460;28;20169;-69
2021/05/28 17:40:30;;;;;;;239.40;228.75;;;;;;;;;;5055139;28;20165;-69
2021/05/28 17:42:57;;;;;;;242.10;231.35;;;;;;;;;;5055770;28;20612;-69
2021/05/28 17:45:23;;;;;;;203.27;194.18;;;;;;;;;;5055719;28;20226;-69
2021/05/28 17:47:49;;;;;;;217.32;207.60;;;;;;;;;;5055602;28;20176;-70
2021/05/28 17:50:16;;;;;;;252.05;240.77;;;;;;;;;;5055665;28;20175;-69
2021/05/28 17:52:44;;;;;;;206.63;197.43;;;;;;;;;;5055540;28;20609;-69
2021/05/28 17:55:11;;;;;;;197.80;188.95;;;;;;;;;;5055548;28;20196;-69
2021/05/28 17:57:37;;;;;;;255.00;243.65;;;;;;;;;;5055486;28;20172;-69
2021/05/28 18:00:05;;;;;;;246.43;235.40;;;;;;;;;;5055344;28;20168;-69
2021/05/28 18:02:31;;;;;;;238.70;228.07;;;;;;;;;;5055323;28;20248;-69
2021/05/28 18:04:57;;;;;;;214.27;204.73;;;;;;;;;;5055304;28;20268;-69
2021/05/28 18:07:23;;;;;;;246.05;235.05;;;;;;;;;;5055265;28;20176;-69
2021/05/28 18:09:49;;;;;;;242.98;232.13;;;;;;;;;;5055447;28;20204;-69
2021/05/28 18:12:15;;;;;;;286.10;272.95;;;;;;;;;;5055247;28;20221;-69
2021/05/28 18:14:41;;;;;;;263.77;251.98;;;;;;;;;;5053909;28;20196;-69
2021/05/28 18:17:07;;;;;;;231.68;221.35;;;;;;;;;;5055311;28;20164;-69
2021/05/28 18:19:33;;;;;;;209.68;200.32;;;;;;;;;;5055225;28;20211;-69
2021/05/28 18:21:59;;;;;;;176.90;168.95;;;;;;;;;;5054860;28;20239;-69
2021/05/28 18:24:25;;;;;;;205.05;195.88;;;;;;;;;;5053896;28;20180;-69
2021/05/28 18:26:52;;;;;;;208.38;199.02;;;;;;;;;;5055133;28;20168;-69
2021/05/28 18:29:18;;;;;;;186.15;177.80;;;;;;;;;;5054994;28;20253;-69
2021/05/28 18:31:44;;;;;;;211.48;202.02;;;;;;;;;;5054948;28;20177;-69
2021/05/28 18:34:10;;;;;;;214.77;205.15;;;;;;;;;;5054856;28;20232;-69
2021/05/28 18:36:39;;;;;;;194.45;185.73;;;;;;;;;;5054901;28;20196;-70
2021/05/28 18:39:07;;;;;;;197.48;188.57;;;;;;;;;;5054844;28;20247;-69
2021/05/28 18:41:33;;;;;;;221.45;211.52;;;;;;;;;;5054900;28;20208;-69
2021/05/28 18:43:59;;;;;;;230.73;220.38;;;;;;;;;;5054727;28;20172;-70
2021/05/28 18:46:25;;;;;;;203.35;194.13;;;;;;;;;;5054691;28;20169;-69
2021/05/28 18:48:51;;;;;;;215.32;205.63;;;;;;;;;;5054706;28;20168;-70
2021/05/28 18:51:17;;;;;;;255.82;244.30;;;;;;;;;;5054640;28;20302;-70
2021/05/28 18:53:44;;;;;;;266.95;254.95;;;;;;;;;;5054567;28;20207;-70
2021/05/28 18:56:11;;;;;;;265.20;253.32;;;;;;;;;;5054548;28;20247;-70
2021/05/28 18:58:38;;;;;;;269.13;257.05;;;;;;;;;;5054481;28;20776;-70
2021/05/28 19:01:04;;;;;;;270.58;258.42;;;;;;;;;;5054534;28;20161;-70
2021/05/28 19:03:31;;;;;;;284.23;271.40;;;;;;;;;;5054368;28;20503;-70
2021/05/28 19:05:58;;;;;;;221.50;211.63;;;;;;;;;;5054383;28;20187;-70
2021/05/28 19:08:26;;;;;;;234.35;223.45;;;;;;;;;;5054324;28;20176;-69
2021/05/28 19:10:53;;;;;;;212.95;203.40;;;;;;;;;;5052908;28;20537;-70
2021/05/28 19:13:19;;;;;;;230.77;220.45;;;;;;;;;;5054064;28;20212;-70
2021/05/28 19:15:46;;;;;;;226.60;216.45;;;;;;;;;;5054236;28;20167;-69
2021/05/28 19:18:14;;;;;;;208.23;198.93;;;;;;;;;;5054314;28;20169;-69
2021/05/28 19:20:42;;;;;;;192.63;183.98;;;;;;;;;;5052813;28;20177;-69
2021/05/28 19:23:08;;;;;;;162.05;154.85;;;;;;;;;;5053920;28;20274;-69
2021/05/28 19:25:37;;;;;;;131.88;125.97;;;;;;;;;;5053945;28;20587;-69
